sensor_id;sensor_type;location;lat;lon;timestamp;P1;durP1;ratioP1;P2;durP2;ratioP2
56102;SDS011;41970;48.774;9.280;2023-04-06T00:01:49;9.37;;;8.37;;
56102;SDS011;41970;48.774;9.280;2023-04-06T00:04:15;9.27;;;7.90;;
56102;SDS011;41970;48.774;9.280;2023-04-06T00:06:41;8.70;;;7.80;;
56102;SDS011;41970;48.774;9.280;2023-04-06T00:09:07;8.27;;;7.53;;
56102;SDS011;41970;48.774;9.280;2023-04-06T00:11:33;8.73;;;7.47;;
56102;SDS011;41970;48.774;9.280;2023-04-06T00:13:58;9.73;;;7.40;;
56102;SDS011;41970;48.774;9.280;2023-04-06T00:16:25;8.48;;;7.03;;
56102;SDS011;41970;48.774;9.280;2023-04-06T00:18:51;11.05;;;7.20;;
56102;SDS011;41970;48.774;9.280;2023-04-06T00:21:17;8.53;;;7.47;;
56102;SDS011;41970;48.774;9.280;2023-04-06T00:23:43;12.25;;;8.40;;
56102;SDS011;41970;48.774;9.280;2023-04-06T00:26:08;10.20;;;8.40;;
56102;SDS011;41970;48.774;9.280;2023-04-06T00:28:36;12.30;;;8.05;;
56102;SDS011;41970;48.774;9.280;2023-04-06T00:31:02;9.77;;;8.77;;
56102;SDS011;41970;48.774;9.280;2023-04-06T00:33:28;9.40;;;8.00;;
56102;SDS011;41970;48.774;9.280;2023-04-06T00:35:54;8.77;;;7.87;;
56102;SDS011;41970;48.774;9.280;2023-04-06T00:38:20;9.70;;;8.13;;
56102;SDS011;41970;48.774;9.280;2023-04-06T00:40:46;9.88;;;8.63;;
56102;SDS011;41970;48.774;9.280;2023-04-06T00:43:12;13.38;;;9.18;;
56102;SDS011;41970;48.774;9.280;2023-04-06T00:45:39;10.40;;;8.52;;
56102;SDS011;41970;48.774;9.280;2023-04-06T00:48:05;10.63;;;8.43;;
56102;SDS011;41970;48.774;9.280;2023-04-06T00:50:32;9.52;;;8.25;;
56102;SDS011;41970;48.774;9.280;2023-04-06T00:53:01;10.33;;;9.10;;
56102;SDS011;41970;48.774;9.280;2023-04-06T00:55:29;9.00;;;7.80;;
56102;SDS011;41970;48.774;9.280;2023-04-06T00:57:59;8.75;;;7.88;;
56102;SDS011;41970;48.774;9.280;2023-04-06T01:00:28;11.63;;;9.10;;
56102;SDS011;41970;48.774;9.280;2023-04-06T01:02:54;11.07;;;10.07;;
56102;SDS011;41970;48.774;9.280;2023-04-06T01:05:20;11.43;;;8.70;;
56102;SDS011;41970;48.774;9.280;2023-04-06T01:07:46;11.97;;;8.70;;
56102;SDS011;41970;48.774;9.280;2023-04-06T01:10:22;11.63;;;9.30;;
56102;SDS011;41970;48.774;9.280;2023-04-06T01:12:51;9.10;;;8.20;;
56102;SDS011;41970;48.774;9.280;2023-04-06T01:15:17;10.70;;;8.13;;
56102;SDS011;41970;48.774;9.280;2023-04-06T01:17:43;10.40;;;9.03;;
56102;SDS011;41970;48.774;9.280;2023-04-06T01:20:09;9.17;;;8.27;;
56102;SDS011;41970;48.774;9.280;2023-04-06T01:22:34;10.43;;;8.80;;
56102;SDS011;41970;48.774;9.280;2023-04-06T01:25:00;10.30;;;9.30;;
56102;SDS011;41970;48.774;9.280;2023-04-06T01:27:26;11.60;;;8.97;;
56102;SDS011;41970;48.774;9.280;2023-04-06T01:29:53;11.38;;;9.10;;
56102;SDS011;41970;48.774;9.280;2023-04-06T01:32:18;15.90;;;8.50;;
56102;SDS011;41970;48.774;9.280;2023-04-06T01:34:44;10.10;;;9.10;;
56102;SDS011;41970;48.774;9.280;2023-04-06T01:37:10;10.77;;;9.07;;
56102;SDS011;41970;48.774;9.280;2023-04-06T01:39:36;10.17;;;9.03;;
56102;SDS011;41970;48.774;9.280;2023-04-06T01:42:01;11.17;;;8.33;;
56102;SDS011;41970;48.774;9.280;2023-04-06T01:44:27;10.73;;;8.23;;
56102;SDS011;41970;48.774;9.280;2023-04-06T01:46:55;9.60;;;8.60;;
56102;SDS011;41970;48.774;9.280;2023-04-06T01:49:21;11.85;;;8.27;;
56102;SDS011;41970;48.774;9.280;2023-04-06T01:51:47;9.77;;;8.63;;
56102;SDS011;41970;48.774;9.280;2023-04-06T01:54:13;9.70;;;8.70;;
56102;SDS011;41970;48.774;9.280;2023-04-06T01:56:38;10.00;;;8.87;;
56102;SDS011;41970;48.774;9.280;2023-04-06T01:59:05;10.52;;;8.48;;
56102;SDS011;41970;48.774;9.280;2023-04-06T02:01:31;9.23;;;8.33;;
56102;SDS011;41970;48.774;9.280;2023-04-06T02:03:57;11.97;;;9.17;;
56102;SDS011;41970;48.774;9.280;2023-04-06T02:06:22;11.20;;;8.37;;
56102;SDS011;41970;48.774;9.280;2023-04-06T02:08:48;10.50;;;8.30;;
56102;SDS011;41970;48.774;9.280;2023-04-06T02:11:17;9.87;;;8.87;;
56102;SDS011;41970;48.774;9.280;2023-04-06T02:13:42;10.98;;;9.45;;
56102;SDS011;41970;48.774;9.280;2023-04-06T02:16:08;11.20;;;9.07;;
56102;SDS011;41970;48.774;9.280;2023-04-06T02:18:34;10.63;;;9.50;;
56102;SDS011;41970;48.774;9.280;2023-04-06T02:21:00;11.50;;;8.70;;
56102;SDS011;41970;48.774;9.280;2023-04-06T02:23:26;11.37;;;8.07;;
56102;SDS011;41970;48.774;9.280;2023-04-06T02:25:52;9.97;;;8.73;;
56102;SDS011;41970;48.774;9.280;2023-04-06T02:28:17;12.23;;;8.67;;
56102;SDS011;41970;48.774;9.280;2023-04-06T02:30:43;9.63;;;8.57;;
56102;SDS011;41970;48.774;9.280;2023-04-06T02:33:09;9.40;;;7.70;;
56102;SDS011;41970;48.774;9.280;2023-04-06T02:35:35;9.80;;;8.17;;
56102;SDS011;41970;48.774;9.280;2023-04-06T02:38:00;9.37;;;8.40;;
56102;SDS011;41970;48.774;9.280;2023-04-06T02:40:26;13.10;;;9.30;;
56102;SDS011;41970;48.774;9.280;2023-04-06T02:42:52;9.83;;;8.83;;
56102;SDS011;41970;48.774;9.280;2023-04-06T02:45:18;9.83;;;7.80;;
56102;SDS011;41970;48.774;9.280;2023-04-06T02:47:44;10.67;;;8.43;;
56102;SDS011;41970;48.774;9.280;2023-04-06T02:50:10;9.45;;;8.38;;
56102;SDS011;41970;48.774;9.280;2023-04-06T02:52:36;10.70;;;9.37;;
56102;SDS011;41970;48.774;9.280;2023-04-06T02:55:02;14.57;;;9.57;;
56102;SDS011;41970;48.774;9.280;2023-04-06T02:57:27;10.27;;;9.20;;
56102;SDS011;41970;48.774;9.280;2023-04-06T02:59:53;13.47;;;9.13;;
56102;SDS011;41970;48.774;9.280;2023-04-06T03:02:19;10.37;;;8.90;;
56102;SDS011;41970;48.774;9.280;2023-04-06T03:04:45;10.30;;;8.33;;
56102;SDS011;41970;48.774;9.280;2023-04-06T03:07:10;10.23;;;8.73;;
56102;SDS011;41970;48.774;9.280;2023-04-06T03:09:36;13.73;;;9.80;;
56102;SDS011;41970;48.774;9.280;2023-04-06T03:12:03;11.85;;;9.50;;
56102;SDS011;41970;48.774;9.280;2023-04-06T03:14:29;10.10;;;8.00;;
56102;SDS011;41970;48.774;9.280;2023-04-06T03:16:55;11.07;;;8.87;;
56102;SDS011;41970;48.774;9.280;2023-04-06T03:19:20;10.90;;;8.77;;
56102;SDS011;41970;48.774;9.280;2023-04-06T03:21:46;9.30;;;8.40;;
56102;SDS011;41970;48.774;9.280;2023-04-06T03:24:12;11.23;;;7.90;;
56102;SDS011;41970;48.774;9.280;2023-04-06T03:26:38;12.15;;;7.88;;
56102;SDS011;41970;48.774;9.280;2023-04-06T03:29:04;9.03;;;8.20;;
56102;SDS011;41970;48.774;9.280;2023-04-06T03:31:30;9.40;;;8.17;;
56102;SDS011;41970;48.774;9.280;2023-04-06T03:33:56;9.83;;;8.70;;
56102;SDS011;41970;48.774;9.280;2023-04-06T03:36:22;11.37;;;8.63;;
56102;SDS011;41970;48.774;9.280;2023-04-06T03:38:47;11.87;;;9.73;;
56102;SDS011;41970;48.774;9.280;2023-04-06T03:41:13;13.13;;;10.67;;
56102;SDS011;41970;48.774;9.280;2023-04-06T03:43:39;12.53;;;9.67;;
56102;SDS011;41970;48.774;9.280;2023-04-06T03:46:04;13.97;;;9.77;;
56102;SDS011;41970;48.774;9.280;2023-04-06T03:48:30;9.87;;;8.70;;
56102;SDS011;41970;48.774;9.280;2023-04-06T03:50:56;11.33;;;9.97;;
56102;SDS011;41970;48.774;9.280;2023-04-06T03:53:22;9.80;;;8.87;;
56102;SDS011;41970;48.774;9.280;2023-04-06T03:55:47;9.27;;;8.27;;
56102;SDS011;41970;48.774;9.280;2023-04-06T03:58:13;10.50;;;8.43;;
56102;SDS011;41970;48.774;9.280;2023-04-06T04:00:39;14.00;;;9.67;;
56102;SDS011;41970;48.774;9.280;2023-04-06T04:03:04;9.07;;;8.17;;
56102;SDS011;41970;48.774;9.280;2023-04-06T04:05:30;12.40;;;8.90;;
56102;SDS011;41970;48.774;9.280;2023-04-06T04:07:56;11.93;;;9.47;;
56102;SDS011;41970;48.774;9.280;2023-04-06T04:10:21;11.30;;;8.00;;
56102;SDS011;41970;48.774;9.280;2023-04-06T04:12:47;10.80;;;8.80;;
56102;SDS011;41970;48.774;9.280;2023-04-06T04:15:13;10.30;;;8.70;;
56102;SDS011;41970;48.774;9.280;2023-04-06T04:17:38;11.37;;;9.17;;
56102;SDS011;41970;48.774;9.280;2023-04-06T04:20:04;12.20;;;9.43;;
56102;SDS011;41970;48.774;9.280;2023-04-06T04:22:31;11.98;;;10.35;;
56102;SDS011;41970;48.774;9.280;2023-04-06T04:24:57;11.40;;;9.17;;
56102;SDS011;41970;48.774;9.280;2023-04-06T04:27:22;12.33;;;9.17;;
56102;SDS011;41970;48.774;9.280;2023-04-06T04:29:48;10.03;;;8.97;;
56102;SDS011;41970;48.774;9.280;2023-04-06T04:32:14;14.13;;;9.30;;
56102;SDS011;41970;48.774;9.280;2023-04-06T04:34:40;13.00;;;9.55;;
56102;SDS011;41970;48.774;9.280;2023-04-06T04:37:06;11.33;;;9.10;;
56102;SDS011;41970;48.774;9.280;2023-04-06T04:39:32;10.53;;;8.97;;
56102;SDS011;41970;48.774;9.280;2023-04-06T04:41:57;9.00;;;8.10;;
56102;SDS011;41970;48.774;9.280;2023-04-06T04:44:23;13.70;;;8.40;;
56102;SDS011;41970;48.774;9.280;2023-04-06T04:46:49;11.40;;;9.07;;
56102;SDS011;41970;48.774;9.280;2023-04-06T04:49:18;11.70;;;9.60;;
56102;SDS011;41970;48.774;9.280;2023-04-06T04:51:43;9.75;;;8.75;;
56102;SDS011;41970;48.774;9.280;2023-04-06T04:54:09;11.00;;;8.47;;
56102;SDS011;41970;48.774;9.280;2023-04-06T04:56:35;11.60;;;9.93;;
56102;SDS011;41970;48.774;9.280;2023-04-06T04:59:01;13.00;;;10.67;;
56102;SDS011;41970;48.774;9.280;2023-04-06T05:01:26;16.23;;;11.10;;
56102;SDS011;41970;48.774;9.280;2023-04-06T05:03:52;10.73;;;9.63;;
56102;SDS011;41970;48.774;9.280;2023-04-06T05:06:18;14.07;;;10.27;;
56102;SDS011;41970;48.774;9.280;2023-04-06T05:08:46;9.93;;;8.60;;
56102;SDS011;41970;48.774;9.280;2023-04-06T05:11:12;10.70;;;9.07;;
56102;SDS011;41970;48.774;9.280;2023-04-06T05:13:37;13.23;;;10.70;;
56102;SDS011;41970;48.774;9.280;2023-04-06T05:16:03;11.90;;;10.07;;
56102;SDS011;41970;48.774;9.280;2023-04-06T05:18:29;13.48;;;11.10;;
56102;SDS011;41970;48.774;9.280;2023-04-06T05:20:55;12.37;;;10.27;;
56102;SDS011;41970;48.774;9.280;2023-04-06T05:23:21;10.50;;;9.30;;
56102;SDS011;41970;48.774;9.280;2023-04-06T05:25:47;10.40;;;9.40;;
56102;SDS011;41970;48.774;9.280;2023-04-06T05:28:13;13.10;;;9.83;;
56102;SDS011;41970;48.774;9.280;2023-04-06T05:30:39;11.60;;;9.80;;
56102;SDS011;41970;48.774;9.280;2023-04-06T05:33:05;14.25;;;9.95;;
56102;SDS011;41970;48.774;9.280;2023-04-06T05:35:31;10.40;;;9.30;;
56102;SDS011;41970;48.774;9.280;2023-04-06T05:37:56;13.63;;;9.80;;
56102;SDS011;41970;48.774;9.280;2023-04-06T05:40:22;10.83;;;9.60;;
56102;SDS011;41970;48.774;9.280;2023-04-06T05:42:48;11.30;;;10.10;;
56102;SDS011;41970;48.774;9.280;2023-04-06T05:45:14;11.93;;;10.25;;
56102;SDS011;41970;48.774;9.280;2023-04-06T05:47:42;10.68;;;9.48;;
56102;SDS011;41970;48.774;9.280;2023-04-06T05:50:11;10.65;;;8.85;;
56102;SDS011;41970;48.774;9.280;2023-04-06T05:52:37;13.77;;;10.50;;
56102;SDS011;41970;48.774;9.280;2023-04-06T05:55:03;12.30;;;8.80;;
56102;SDS011;41970;48.774;9.280;2023-04-06T05:57:29;11.68;;;9.43;;
56102;SDS011;41970;48.774;9.280;2023-04-06T05:59:55;9.43;;;8.10;;
56102;SDS011;41970;48.774;9.280;2023-04-06T06:02:21;12.93;;;10.87;;
56102;SDS011;41970;48.774;9.280;2023-04-06T06:04:47;17.17;;;10.70;;
56102;SDS011;41970;48.774;9.280;2023-04-06T06:07:13;13.87;;;10.40;;
56102;SDS011;41970;48.774;9.280;2023-04-06T06:09:40;10.68;;;9.57;;
56102;SDS011;41970;48.774;9.280;2023-04-06T06:12:05;10.70;;;9.50;;
56102;SDS011;41970;48.774;9.280;2023-04-06T06:14:31;11.07;;;9.97;;
56102;SDS011;41970;48.774;9.280;2023-04-06T06:16:57;13.13;;;10.57;;
56102;SDS011;41970;48.774;9.280;2023-04-06T06:19:23;9.77;;;8.77;;
56102;SDS011;41970;48.774;9.280;2023-04-06T06:21:48;12.17;;;9.50;;
56102;SDS011;41970;48.774;9.280;2023-04-06T06:24:14;11.00;;;9.43;;
56102;SDS011;41970;48.774;9.280;2023-04-06T06:26:40;15.40;;;10.77;;
56102;SDS011;41970;48.774;9.280;2023-04-06T06:29:06;10.17;;;9.17;;
56102;SDS011;41970;48.774;9.280;2023-04-06T06:31:32;14.83;;;10.20;;
56102;SDS011;41970;48.774;9.280;2023-04-06T06:33:58;14.17;;;10.47;;
56102;SDS011;41970;48.774;9.280;2023-04-06T06:36:24;13.97;;;12.67;;
56102;SDS011;41970;48.774;9.280;2023-04-06T06:38:50;18.88;;;15.60;;
56102;SDS011;41970;48.774;9.280;2023-04-06T06:41:16;19.90;;;15.10;;
56102;SDS011;41970;48.774;9.280;2023-04-06T06:43:42;17.02;;;11.95;;
56102;SDS011;41970;48.774;9.280;2023-04-06T06:46:08;11.23;;;9.40;;
56102;SDS011;41970;48.774;9.280;2023-04-06T06:48:34;14.17;;;11.50;;
56102;SDS011;41970;48.774;9.280;2023-04-06T06:51:00;11.57;;;10.40;;
56102;SDS011;41970;48.774;9.280;2023-04-06T06:53:26;14.77;;;11.40;;
56102;SDS011;41970;48.774;9.280;2023-04-06T06:55:51;10.07;;;9.07;;
56102;SDS011;41970;48.774;9.280;2023-04-06T06:58:18;8.70;;;7.80;;
56102;SDS011;41970;48.774;9.280;2023-04-06T07:00:45;10.68;;;8.75;;
56102;SDS011;41970;48.774;9.280;2023-04-06T07:03:11;12.77;;;9.43;;
56102;SDS011;41970;48.774;9.280;2023-04-06T07:05:36;8.47;;;7.40;;
56102;SDS011;41970;48.774;9.280;2023-04-06T07:08:03;8.77;;;7.88;;
56102;SDS011;41970;48.774;9.280;2023-04-06T07:10:30;11.00;;;9.40;;
56102;SDS011;41970;48.774;9.280;2023-04-06T07:12:56;12.40;;;9.50;;
56102;SDS011;41970;48.774;9.280;2023-04-06T07:15:22;10.13;;;9.13;;
56102;SDS011;41970;48.774;9.280;2023-04-06T07:17:48;10.27;;;9.17;;
56102;SDS011;41970;48.774;9.280;2023-04-06T07:20:15;11.60;;;9.68;;
56102;SDS011;41970;48.774;9.280;2023-04-06T07:22:42;10.48;;;9.30;;
56102;SDS011;41970;48.774;9.280;2023-04-06T07:25:09;11.30;;;10.25;;
56102;SDS011;41970;48.774;9.280;2023-04-06T07:27:35;12.10;;;10.40;;
56102;SDS011;41970;48.774;9.280;2023-04-06T07:30:01;10.40;;;8.40;;
56102;SDS011;41970;48.774;9.280;2023-04-06T07:32:28;9.90;;;8.50;;
56102;SDS011;41970;48.774;9.280;2023-04-06T07:34:55;9.98;;;8.35;;
56102;SDS011;41970;48.774;9.280;2023-04-06T07:37:21;8.93;;;8.03;;
56102;SDS011;41970;48.774;9.280;2023-04-06T07:39:47;9.93;;;8.50;;
56102;SDS011;41970;48.774;9.280;2023-04-06T07:42:13;11.27;;;10.17;;
56102;SDS011;41970;48.774;9.280;2023-04-06T07:44:38;10.50;;;9.50;;
56102;SDS011;41970;48.774;9.280;2023-04-06T07:47:04;11.30;;;9.33;;
56102;SDS011;41970;48.774;9.280;2023-04-06T07:49:30;13.90;;;9.17;;
56102;SDS011;41970;48.774;9.280;2023-04-06T07:51:57;10.77;;;9.60;;
56102;SDS011;41970;48.774;9.280;2023-04-06T07:54:23;11.13;;;10.00;;
56102;SDS011;41970;48.774;9.280;2023-04-06T07:56:48;12.07;;;10.87;;
56102;SDS011;41970;48.774;9.280;2023-04-06T07:59:14;9.90;;;8.90;;
56102;SDS011;41970;48.774;9.280;2023-04-06T08:01:40;12.40;;;9.07;;
56102;SDS011;41970;48.774;9.280;2023-04-06T08:04:06;11.00;;;9.70;;
56102;SDS011;41970;48.774;9.280;2023-04-06T08:06:32;10.27;;;9.27;;
56102;SDS011;41970;48.774;9.280;2023-04-06T08:08:57;14.20;;;9.30;;
56102;SDS011;41970;48.774;9.280;2023-04-06T08:11:23;10.67;;;9.60;;
56102;SDS011;41970;48.774;9.280;2023-04-06T08:13:49;11.43;;;10.33;;
56102;SDS011;41970;48.774;9.280;2023-04-06T08:16:15;12.53;;;8.97;;
56102;SDS011;41970;48.774;9.280;2023-04-06T08:18:41;10.93;;;9.90;;
56102;SDS011;41970;48.774;9.280;2023-04-06T08:21:06;12.13;;;9.27;;
56102;SDS011;41970;48.774;9.280;2023-04-06T08:23:32;11.03;;;10.00;;
56102;SDS011;41970;48.774;9.280;2023-04-06T08:25:58;10.13;;;9.20;;
56102;SDS011;41970;48.774;9.280;2023-04-06T08:28:24;11.17;;;10.10;;
56102;SDS011;41970;48.774;9.280;2023-04-06T08:30:49;14.30;;;10.00;;
56102;SDS011;41970;48.774;9.280;2023-04-06T08:33:15;11.90;;;10.70;;
56102;SDS011;41970;48.774;9.280;2023-04-06T08:35:41;10.63;;;9.60;;
56102;SDS011;41970;48.774;9.280;2023-04-06T08:38:07;10.73;;;9.80;;
56102;SDS011;41970;48.774;9.280;2023-04-06T08:40:39;12.27;;;10.10;;
56102;SDS011;41970;48.774;9.280;2023-04-06T08:43:08;10.63;;;8.90;;
56102;SDS011;41970;48.774;9.280;2023-04-06T08:45:38;13.40;;;10.20;;
56102;SDS011;41970;48.774;9.280;2023-04-06T08:48:05;11.50;;;10.40;;
56102;SDS011;41970;48.774;9.280;2023-04-06T08:50:35;12.23;;;11.13;;
56102;SDS011;41970;48.774;9.280;2023-04-06T08:53:01;10.77;;;9.40;;
56102;SDS011;41970;48.774;9.280;2023-04-06T08:55:27;14.37;;;9.50;;
56102;SDS011;41970;48.774;9.280;2023-04-06T08:57:53;9.80;;;8.80;;
56102;SDS011;41970;48.774;9.280;2023-04-06T09:00:21;9.93;;;9.00;;
56102;SDS011;41970;48.774;9.280;2023-04-06T09:02:48;11.47;;;10.00;;
56102;SDS011;41970;48.774;9.280;2023-04-06T09:05:15;11.30;;;10.13;;
56102;SDS011;41970;48.774;9.280;2023-04-06T09:07:41;12.50;;;11.20;;
56102;SDS011;41970;48.774;9.280;2023-04-06T09:10:07;13.33;;;10.63;;
56102;SDS011;41970;48.774;9.280;2023-04-06T09:12:34;11.57;;;8.93;;
56102;SDS011;41970;48.774;9.280;2023-04-06T09:15:00;10.73;;;9.60;;
56102;SDS011;41970;48.774;9.280;2023-04-06T09:17:27;11.27;;;9.87;;
56102;SDS011;41970;48.774;9.280;2023-04-06T09:19:55;13.70;;;9.17;;
56102;SDS011;41970;48.774;9.280;2023-04-06T09:22:21;10.80;;;9.10;;
56102;SDS011;41970;48.774;9.280;2023-04-06T09:24:51;9.77;;;8.77;;
56102;SDS011;41970;48.774;9.280;2023-04-06T09:27:18;10.47;;;9.47;;
56102;SDS011;41970;48.774;9.280;2023-04-06T09:32:47;10.43;;;9.33;;
56102;SDS011;41970;48.774;9.280;2023-04-06T09:35:15;15.80;;;10.53;;
56102;SDS011;41970;48.774;9.280;2023-04-06T09:37:45;10.97;;;9.83;;
56102;SDS011;41970;48.774;9.280;2023-04-06T09:40:12;9.97;;;8.43;;
56102;SDS011;41970;48.774;9.280;2023-04-06T09:42:42;11.87;;;10.50;;
56102;SDS011;41970;48.774;9.280;2023-04-06T09:45:18;9.57;;;8.57;;
56102;SDS011;41970;48.774;9.280;2023-04-06T09:47:46;14.00;;;10.00;;
56102;SDS011;41970;48.774;9.280;2023-04-06T09:50:12;10.37;;;9.33;;
56102;SDS011;41970;48.774;9.280;2023-04-06T09:52:49;9.90;;;8.90;;
56102;SDS011;41970;48.774;9.280;2023-04-06T09:55:39;8.60;;;7.80;;
56102;SDS011;41970;48.774;9.280;2023-04-06T09:58:08;9.00;;;8.10;;
56102;SDS011;41970;48.774;9.280;2023-04-06T10:06:00;8.00;;;6.27;;
56102;SDS011;41970;48.774;9.280;2023-04-06T10:08:32;7.57;;;6.87;;
56102;SDS011;41970;48.774;9.280;2023-04-06T10:11:02;8.53;;;7.60;;
56102;SDS011;41970;48.774;9.280;2023-04-06T10:13:28;7.33;;;6.63;;
56102;SDS011;41970;48.774;9.280;2023-04-06T10:15:54;6.33;;;5.80;;
56102;SDS011;41970;48.774;9.280;2023-04-06T10:18:20;7.70;;;6.97;;
56102;SDS011;41970;48.774;9.280;2023-04-06T10:20:51;6.30;;;5.57;;
56102;SDS011;41970;48.774;9.280;2023-04-06T10:23:38;6.80;;;5.53;;
56102;SDS011;41970;48.774;9.280;2023-04-06T10:26:12;6.10;;;5.60;;
56102;SDS011;41970;48.774;9.280;2023-04-06T10:28:41;6.80;;;6.13;;
56102;SDS011;41970;48.774;9.280;2023-04-06T10:31:08;6.03;;;5.43;;
56102;SDS011;41970;48.774;9.280;2023-04-06T10:33:34;7.60;;;6.90;;
56102;SDS011;41970;48.774;9.280;2023-04-06T10:36:13;7.60;;;6.40;;
56102;SDS011;41970;48.774;9.280;2023-04-06T10:38:40;7.40;;;6.70;;
56102;SDS011;41970;48.774;9.280;2023-04-06T10:41:07;8.10;;;6.60;;
56102;SDS011;41970;48.774;9.280;2023-04-06T10:43:35;6.37;;;5.77;;
56102;SDS011;41970;48.774;9.280;2023-04-06T10:46:03;7.30;;;6.30;;
56102;SDS011;41970;48.774;9.280;2023-04-06T10:48:43;8.50;;;5.93;;
56102;SDS011;41970;48.774;9.280;2023-04-06T10:51:13;6.80;;;6.13;;
56102;SDS011;41970;48.774;9.280;2023-04-06T10:53:49;8.50;;;7.70;;
56102;SDS011;41970;48.774;9.280;2023-04-06T10:56:15;7.27;;;6.57;;
56102;SDS011;41970;48.774;9.280;2023-04-06T10:58:52;7.60;;;5.90;;
56102;SDS011;41970;48.774;9.280;2023-04-06T11:01:19;7.30;;;6.47;;
56102;SDS011;41970;48.774;9.280;2023-04-06T11:03:53;9.50;;;7.30;;
56102;SDS011;41970;48.774;9.280;2023-04-06T11:06:24;7.13;;;6.43;;
56102;SDS011;41970;48.774;9.280;2023-04-06T11:08:52;7.47;;;6.53;;
56102;SDS011;41970;48.774;9.280;2023-04-06T11:11:19;6.03;;;5.47;;
56102;SDS011;41970;48.774;9.280;2023-04-06T11:13:58;7.00;;;6.00;;
56102;SDS011;41970;48.774;9.280;2023-04-06T11:16:29;6.90;;;6.20;;
56102;SDS011;41970;48.774;9.280;2023-04-06T11:18:57;6.57;;;5.87;;
56102;SDS011;41970;48.774;9.280;2023-04-06T11:21:37;10.50;;;5.57;;
56102;SDS011;41970;48.774;9.280;2023-04-06T11:24:15;7.60;;;6.90;;
56102;SDS011;41970;48.774;9.280;2023-04-06T11:26:48;10.23;;;7.10;;
56102;SDS011;41970;48.774;9.280;2023-04-06T11:29:22;6.00;;;5.50;;
56102;SDS011;41970;48.774;9.280;2023-04-06T11:31:52;7.10;;;6.40;;
56102;SDS011;41970;48.774;9.280;2023-04-06T11:34:19;6.43;;;5.80;;
56102;SDS011;41970;48.774;9.280;2023-04-06T11:36:47;9.37;;;6.50;;
56102;SDS011;41970;48.774;9.280;2023-04-06T11:39:19;16.53;;;5.80;;
56102;SDS011;41970;48.774;9.280;2023-04-06T11:41:49;9.20;;;6.30;;
56102;SDS011;41970;48.774;9.280;2023-04-06T11:44:26;8.07;;;7.20;;
56102;SDS011;41970;48.774;9.280;2023-04-06T11:47:04;8.10;;;6.20;;
56102;SDS011;41970;48.774;9.280;2023-04-06T11:49:31;6.70;;;6.10;;
56102;SDS011;41970;48.774;9.280;2023-04-06T11:51:58;6.93;;;6.23;;
56102;SDS011;41970;48.774;9.280;2023-04-06T11:54:31;6.00;;;5.10;;
56102;SDS011;41970;48.774;9.280;2023-04-06T11:56:58;8.73;;;5.90;;
56102;SDS011;41970;48.774;9.280;2023-04-06T11:59:25;7.57;;;5.70;;
56102;SDS011;41970;48.774;9.280;2023-04-06T12:01:52;9.93;;;6.47;;
56102;SDS011;41970;48.774;9.280;2023-04-06T12:04:18;7.57;;;6.27;;
56102;SDS011;41970;48.774;9.280;2023-04-06T12:06:44;6.20;;;5.60;;
56102;SDS011;41970;48.774;9.280;2023-04-06T12:09:10;6.40;;;5.80;;
56102;SDS011;41970;48.774;9.280;2023-04-06T12:11:36;7.73;;;6.20;;
56102;SDS011;41970;48.774;9.280;2023-04-06T12:14:06;6.73;;;6.13;;
56102;SDS011;41970;48.774;9.280;2023-04-06T12:16:33;7.13;;;6.43;;
56102;SDS011;41970;48.774;9.280;2023-04-06T12:18:59;7.40;;;6.37;;
56102;SDS011;41970;48.774;9.280;2023-04-06T12:21:29;7.60;;;6.50;;
56102;SDS011;41970;48.774;9.280;2023-04-06T12:23:56;7.87;;;6.20;;
56102;SDS011;41970;48.774;9.280;2023-04-06T12:26:23;6.33;;;5.73;;
56102;SDS011;41970;48.774;9.280;2023-04-06T12:28:50;6.40;;;5.10;;
56102;SDS011;41970;48.774;9.280;2023-04-06T12:31:19;5.20;;;4.80;;
56102;SDS011;41970;48.774;9.280;2023-04-06T12:33:47;6.87;;;5.73;;
56102;SDS011;41970;48.774;9.280;2023-04-06T12:36:17;5.63;;;5.10;;
56102;SDS011;41970;48.774;9.280;2023-04-06T12:38:47;5.50;;;4.93;;
56102;SDS011;41970;48.774;9.280;2023-04-06T12:41:13;6.83;;;6.20;;
56102;SDS011;41970;48.774;9.280;2023-04-06T12:43:43;7.47;;;6.73;;
56102;SDS011;41970;48.774;9.280;2023-04-06T12:46:09;6.47;;;5.40;;
56102;SDS011;41970;48.774;9.280;2023-04-06T12:48:36;7.00;;;6.30;;
56102;SDS011;41970;48.774;9.280;2023-04-06T12:51:02;6.47;;;5.67;;
56102;SDS011;41970;48.774;9.280;2023-04-06T12:53:30;5.00;;;4.60;;
56102;SDS011;41970;48.774;9.280;2023-04-06T12:55:56;6.23;;;5.63;;
56102;SDS011;41970;48.774;9.280;2023-04-06T12:58:23;6.30;;;5.80;;
56102;SDS011;41970;48.774;9.280;2023-04-06T13:00:51;6.87;;;6.17;;
56102;SDS011;41970;48.774;9.280;2023-04-06T13:03:20;4.97;;;4.47;;
56102;SDS011;41970;48.774;9.280;2023-04-06T13:05:47;6.03;;;5.43;;
56102;SDS011;41970;48.774;9.280;2023-04-06T13:08:14;5.80;;;4.60;;
56102;SDS011;41970;48.774;9.280;2023-04-06T13:10:44;4.80;;;4.30;;
56102;SDS011;41970;48.774;9.280;2023-04-06T13:13:14;6.03;;;5.10;;
56102;SDS011;41970;48.774;9.280;2023-04-06T13:15:40;4.80;;;4.30;;
56102;SDS011;41970;48.774;9.280;2023-04-06T13:18:07;4.87;;;4.37;;
56102;SDS011;41970;48.774;9.280;2023-04-06T13:20:33;6.80;;;4.57;;
56102;SDS011;41970;48.774;9.280;2023-04-06T13:23:00;5.63;;;5.03;;
56102;SDS011;41970;48.774;9.280;2023-04-06T13:25:25;6.50;;;5.17;;
56102;SDS011;41970;48.774;9.280;2023-04-06T13:27:51;6.37;;;5.33;;
56102;SDS011;41970;48.774;9.280;2023-04-06T13:30:17;8.07;;;5.50;;
56102;SDS011;41970;48.774;9.280;2023-04-06T13:32:43;5.70;;;5.20;;
56102;SDS011;41970;48.774;9.280;2023-04-06T13:35:09;6.43;;;5.20;;
56102;SDS011;41970;48.774;9.280;2023-04-06T13:37:36;6.10;;;4.63;;
56102;SDS011;41970;48.774;9.280;2023-04-06T13:40:03;7.00;;;5.17;;
56102;SDS011;41970;48.774;9.280;2023-04-06T13:42:31;5.77;;;5.27;;
56102;SDS011;41970;48.774;9.280;2023-04-06T13:44:57;6.47;;;4.97;;
56102;SDS011;41970;48.774;9.280;2023-04-06T13:47:24;6.00;;;5.40;;
56102;SDS011;41970;48.774;9.280;2023-04-06T13:49:50;5.70;;;5.17;;
56102;SDS011;41970;48.774;9.280;2023-04-06T13:52:17;5.03;;;4.50;;
56102;SDS011;41970;48.774;9.280;2023-04-06T13:54:44;7.07;;;5.70;;
56102;SDS011;41970;48.774;9.280;2023-04-06T13:57:11;6.47;;;5.00;;
56102;SDS011;41970;48.774;9.280;2023-04-06T13:59:38;4.30;;;3.90;;
56102;SDS011;41970;48.774;9.280;2023-04-06T14:02:05;5.83;;;5.23;;
56102;SDS011;41970;48.774;9.280;2023-04-06T14:04:32;4.97;;;4.50;;
56102;SDS011;41970;48.774;9.280;2023-04-06T14:06:59;8.03;;;4.93;;
56102;SDS011;41970;48.774;9.280;2023-04-06T14:09:25;5.30;;;4.80;;
56102;SDS011;41970;48.774;9.280;2023-04-06T14:11:52;6.10;;;5.60;;
56102;SDS011;41970;48.774;9.280;2023-04-06T14:14:18;5.30;;;4.80;;
56102;SDS011;41970;48.774;9.280;2023-04-06T14:16:44;5.53;;;4.27;;
56102;SDS011;41970;48.774;9.280;2023-04-06T14:19:13;7.30;;;4.70;;
56102;SDS011;41970;48.774;9.280;2023-04-06T14:21:47;6.40;;;5.10;;
56102;SDS011;41970;48.774;9.280;2023-04-06T14:24:13;6.20;;;4.77;;
56102;SDS011;41970;48.774;9.280;2023-04-06T14:26:41;6.67;;;4.87;;
56102;SDS011;41970;48.774;9.280;2023-04-06T14:29:07;5.67;;;4.67;;
56102;SDS011;41970;48.774;9.280;2023-04-06T14:31:36;6.13;;;5.10;;
56102;SDS011;41970;48.774;9.280;2023-04-06T14:34:02;5.90;;;5.30;;
56102;SDS011;41970;48.774;9.280;2023-04-06T14:36:29;6.37;;;5.77;;
56102;SDS011;41970;48.774;9.280;2023-04-06T14:39:01;6.63;;;5.13;;
56102;SDS011;41970;48.774;9.280;2023-04-06T14:41:31;5.10;;;4.70;;
56102;SDS011;41970;48.774;9.280;2023-04-06T14:43:58;6.83;;;5.70;;
56102;SDS011;41970;48.774;9.280;2023-04-06T14:46:25;6.07;;;5.47;;